Terminal Aerodrome Forecast
Issued by NWS Wichita, KS

Home | Current Version | Previous Version | Text Only | Print | Product List | Glossary On
Versions: 1 2 3 4 5 6 7 8 9 10 11 12 13 14 15 16 17 18 19 20 21 22 23 24 25 26 27 28
684
FTUS43 KICT 271743
TAFICT
TAF
KICT 271743Z 2718/2818 36009KT P6SM OVC010
     FM272000 35007KT P6SM OVC017
     FM280200 08003KT P6SM OVC015=

USA.gov is the U.S. government's official web portal to all federal, state and local government web resources and services.